Time;durP1;ratioP1;P1;durP2;ratioP2;P2;SDS_P1;SDS_P2;PMS_P1;PMS_P2;Temp;Humidity;BMP_temperature;BMP_pressure;BME280_temperature;BME280_humidity;BME280_pressure;Samples;Min_cycle;Max_cycle;Signal;HPM_P1;HPM_P2
2022/03/14 00:01:24;;;;;;;12.00;7.50;;;;;;;-3.15;56.80;98732.62;110385;1244;72530;-61
2022/03/14 00:04:05;;;;;;;15.00;10.00;;;;;;;-3.14;54.98;98735.86;110418;1244;68614;-66
2022/03/14 00:06:48;;;;;;;19.00;12.40;;;;;;;-3.07;57.03;98733.99;110388;1245;69682;-65
2022/03/14 00:09:30;;;;;;;24.90;15.50;;;;;;;-3.09;57.76;98733.48;110330;1246;59757;-66
2022/03/14 00:12:25;;;;;;;21.60;15.30;;;;;;;-3.16;60.08;98735.17;110410;1247;59608;-68
2022/03/14 00:15:11;;;;;;;18.70;11.80;;;;;;;-3.22;61.13;98736.00;110132;1246;71761;-62
2022/03/14 00:18:00;;;;;;;20.70;15.00;;;;;;;-3.27;59.85;98738.37;110191;1247;68224;-68
2022/03/14 00:20:37;;;;;;;13.10;9.40;;;;;;;-3.34;60.43;98739.38;110079;1247;68679;-70
2022/03/14 00:23:29;;;;;;;13.10;9.60;;;;;;;-3.38;58.53;98742.59;110392;1245;59697;-63
2022/03/14 00:26:17;;;;;;;9.30;6.00;;;;;;;-3.44;56.92;98739.15;110207;1247;59679;-66
2022/03/14 00:28:56;;;;;;;12.60;9.70;;;;;;;-3.50;57.90;98740.32;109948;1247;70635;-61
2022/03/14 00:31:32;;;;;;;;;;;;;;;-3.54;58.57;98741.67;110099;1247;67644;-68
2022/03/14 00:34:17;;;;;;;9.30;6.10;;;;;;;-3.59;58.30;98741.30;110158;1247;68716;-68
2022/03/14 00:37:02;;;;;;;16.20;10.30;;;;;;;-3.62;56.93;98746.05;110087;1247;59724;-64
2022/03/14 00:39:54;;;;;;;11.90;8.60;;;;;;;-3.62;57.62;98747.59;110345;1247;59742;-62
2022/03/14 00:42:36;;;;;;;13.30;9.00;;;;;;;-3.67;59.68;98746.38;110395;1247;71713;-62
2022/03/14 00:45:17;;;;;;;11.40;9.10;;;;;;;-3.72;58.37;98745.85;110346;1245;67801;-64
2022/03/14 00:47:55;;;;;;;16.20;11.00;;;;;;;-3.74;57.36;98745.34;110024;1246;68461;-61
2022/03/14 00:50:45;;;;;;;25.40;15.90;;;;;;;-3.74;59.56;98748.05;110443;1247;59719;-64
2022/03/14 00:53:22;;;;;;;23.90;15.70;;;;;;;-3.81;62.86;98751.42;110535;1245;59777;-64
2022/03/14 00:56:06;;;;;;;24.00;17.20;;;;;;;-3.88;64.72;98755.13;110481;1246;70531;-62
2022/03/14 00:58:46;;;;;;;24.30;16.20;;;;;;;-3.96;65.87;98754.39;110447;1247;68040;-68
2022/03/14 01:01:27;;;;;;;24.30;16.20;;;;;;;-3.98;66.18;98752.84;110294;1247;69295;-68
2022/03/14 01:04:12;;;;;;;20.70;15.20;;;;;;;-3.98;66.54;98753.70;110172;1247;59633;-61
2022/03/14 01:07:07;;;;;;;17.60;10.80;;;;;;;-3.92;63.56;98755.27;110117;1247;59696;-60
2022/03/14 01:09:45;;;;;;;13.50;9.40;;;;;;;-3.82;63.02;98759.58;110252;1246;70748;-64
2022/03/14 01:12:29;;;;;;;15.50;11.30;;;;;;;-3.76;63.24;98758.94;110244;1247;68553;-64
2022/03/14 01:15:09;;;;;;;19.20;11.70;;;;;;;-3.75;62.49;98760.83;110252;1246;68698;-63
2022/03/14 01:17:49;;;;;;;25.10;15.20;;;;;;;-3.79;64.11;98763.35;110233;1247;59703;-60
2022/03/14 01:20:26;;;;;;;20.10;13.10;;;;;;;-3.88;65.04;98765.52;110109;1246;59666;-60
2022/03/14 01:23:03;;;;;;;22.60;14.80;;;;;;;-3.96;65.62;98767.84;110202;1247;71500;-60
2022/03/14 01:25:42;;;;;;;19.40;12.10;;;;;;;-4.01;66.57;98768.66;110245;1247;68576;-60
2022/03/14 01:28:26;;;;;;;19.10;12.60;;;;;;;-4.02;65.85;98769.16;110086;1247;68805;-64
2022/03/14 01:31:11;;;;;;;22.30;14.90;;;;;;;-4.05;64.53;98772.05;110035;1247;60149;-63
2022/03/14 01:33:56;;;;;;;21.00;11.80;;;;;;;-4.08;64.36;98769.13;110081;1247;59720;-68
2022/03/14 01:36:34;;;;;;;16.10;10.50;;;;;;;-4.02;64.24;98766.79;110087;1245;71534;-66
2022/03/14 01:39:21;;;;;;;18.30;12.00;;;;;;;-4.02;65.27;98773.25;110004;1245;67869;-65
2022/03/14 01:41:59;;;;;;;16.90;11.50;;;;;;;-4.01;64.34;98771.21;110212;1247;68641;-66
2022/03/14 01:44:54;;;;;;;18.50;11.10;;;;;;;-3.98;64.30;98769.36;110234;1246;59749;-68
2022/03/14 01:47:35;;;;;;;18.10;11.70;;;;;;;-3.92;64.89;98773.66;110207;1246;59695;-63
2022/03/14 01:50:13;;;;;;;21.10;13.10;;;;;;;-3.93;64.54;98771.27;110243;1244;71570;-64
2022/03/14 01:53:02;;;;;;;17.20;10.30;;;;;;;-3.99;64.01;98770.55;110020;1247;69086;-64
2022/03/14 01:55:41;;;;;;;17.40;10.80;;;;;;;-4.06;63.54;98773.57;110274;1246;69510;-65
2022/03/14 01:58:21;;;;;;;21.00;12.60;;;;;;;-4.11;63.56;98775.42;110019;1247;59732;-66
2022/03/14 02:00:58;;;;;;;22.90;14.30;;;;;;;-4.15;63.81;98778.45;110139;1247;59720;-64
2022/03/14 02:03:42;;;;;;;13.60;9.10;;;;;;;-4.20;64.19;98782.83;110232;1247;70639;-64
2022/03/14 02:06:22;;;;;;;22.30;13.10;;;;;;;-4.25;63.95;98786.53;110266;1246;68447;-66
2022/03/14 02:08:58;;;;;;;21.60;13.40;;;;;;;-4.30;63.28;98788.02;110028;1247;69363;-64
2022/03/14 02:12:00;;;;;;;19.10;11.00;;;;;;;-4.32;63.77;98795.50;110073;1247;59694;-63
2022/03/14 02:14:41;;;;;;;24.60;13.20;;;;;;;-4.32;63.93;98796.52;110279;1246;59737;-62
2022/03/14 02:17:25;;;;;;;20.10;12.40;;;;;;;-4.30;64.68;98799.60;110194;1245;70657;-67
2022/03/14 02:20:08;;;;;;;25.70;13.10;;;;;;;-4.28;65.26;98801.15;110117;1247;67691;-68
2022/03/14 02:22:48;;;;;;;21.80;13.50;;;;;;;-4.26;65.77;98806.10;110250;1247;67797;-69
2022/03/14 02:25:30;;;;;;;17.90;12.50;;;;;;;-4.25;66.11;98807.64;110049;1247;59739;-64
2022/03/14 02:28:07;;;;;;;18.10;10.60;;;;;;;-4.27;66.14;98806.94;110388;1247;59685;-62
2022/03/14 02:30:51;;;;;;;20.30;11.90;;;;;;;-4.28;66.25;98808.29;110088;1247;70741;-64
2022/03/14 02:33:34;;;;;;;17.10;10.20;;;;;;;-4.33;66.12;98809.63;110106;1247;67695;-65
2022/03/14 02:36:14;;;;;;;17.30;10.50;;;;;;;-4.34;66.49;98809.10;110310;1244;69431;-64
2022/03/14 02:38:50;;;;;;;18.00;9.90;;;;;;;-4.37;66.63;98806.86;110138;1247;59712;-64
2022/03/14 02:41:36;;;;;;;19.90;12.00;;;;;;;-4.41;66.74;98812.45;110300;1246;59625;-63
2022/03/14 02:44:22;;;;;;;20.10;12.60;;;;;;;-4.46;66.92;98807.80;110127;1246;69822;-62
2022/03/14 02:47:07;;;;;;;19.50;12.70;;;;;;;-4.54;66.51;98808.91;110139;1247;68647;-62
2022/03/14 02:49:44;;;;;;;17.60;11.90;;;;;;;-4.64;67.54;98809.67;110189;1247;69666;-67
2022/03/14 02:52:23;;;;;;;26.50;16.50;;;;;;;-4.72;68.37;98811.45;110107;1247;59760;-61
2022/03/14 02:55:02;;;;;;;23.00;14.80;;;;;;;-4.79;69.64;98814.44;109316;1247;1271329;-64
2022/03/14 02:57:48;;;;;;;15.80;10.50;;;;;;;-4.87;70.10;98815.90;110264;1247;72325;-63
2022/03/14 03:00:30;;;;;;;19.50;12.30;;;;;;;-4.88;67.59;98817.58;110152;1244;68711;-63
2022/03/14 03:03:14;;;;;;;27.20;15.10;;;;;;;-4.93;69.30;98816.00;110022;1247;68594;-62
2022/03/14 03:05:52;;;;;;;23.10;15.20;;;;;;;-4.94;68.33;98819.73;110263;1245;59760;-61
2022/03/14 03:08:28;;;;;;;26.10;15.70;;;;;;;-4.98;70.35;98822.91;110223;1245;59980;-61
2022/03/14 03:11:08;;;;;;;24.30;16.10;;;;;;;-5.02;71.11;98823.55;110028;1247;71342;-62
2022/03/14 03:13:54;;;;;;;23.90;15.60;;;;;;;-5.05;70.97;98824.86;110236;1245;67823;-60
2022/03/14 03:16:38;;;;;;;22.60;14.10;;;;;;;-5.09;70.11;98829.07;110163;1247;68602;-68
2022/03/14 03:19:18;;;;;;;25.80;14.90;;;;;;;-5.14;69.29;98832.59;110200;1247;59688;-68
2022/03/14 03:21:57;;;;;;;21.80;15.60;;;;;;;-5.22;70.49;98836.90;110046;1247;59662;-63
2022/03/14 03:24:43;;;;;;;20.00;12.70;;;;;;;-5.29;69.99;98836.31;110033;1248;70872;-63
2022/03/14 03:27:26;;;;;;;18.80;12.80;;;;;;;-5.35;69.13;98837.08;110223;1245;68682;-68
2022/03/14 03:30:06;;;;;;;11.30;7.80;;;;;;;-5.40;68.57;98840.42;110044;1247;69391;-61
2022/03/14 03:32:45;;;;;;;13.60;8.80;;;;;;;-5.45;68.07;98842.55;110057;1246;59742;-64
2022/03/14 03:35:22;;;;;;;9.90;8.20;;;;;;;-5.50;67.33;98845.70;110244;1247;59709;-62
2022/03/14 03:38:03;;;;;;;25.80;16.40;;;;;;;-5.55;66.86;98852.42;110222;1247;70936;-61
2022/03/14 03:40:48;;;;;;;11.50;9.20;;;;;;;-5.59;67.77;98852.36;110053;1247;68684;-64
2022/03/14 03:43:30;;;;;;;15.60;10.90;;;;;;;-5.63;66.71;98860.14;110000;1247;68630;-61
2022/03/14 03:46:11;;;;;;;19.70;12.40;;;;;;;-5.62;66.09;98860.83;110098;1247;59703;-61
2022/03/14 03:48:48;;;;;;;19.30;12.40;;;;;;;-5.59;67.25;98865.13;110275;1241;60012;-64
2022/03/14 03:51:32;;;;;;;17.70;10.90;;;;;;;-5.57;67.39;98865.48;110212;1244;71457;-63
2022/03/14 03:54:23;;;;;;;19.50;12.10;;;;;;;-5.54;67.92;98867.39;110096;1247;67690;-67
2022/03/14 03:57:00;;;;;;;16.30;11.00;;;;;;;-5.59;67.78;98872.08;110062;1247;69451;-66
2022/03/14 03:59:41;;;;;;;23.10;13.90;;;;;;;-5.64;67.19;98875.91;110182;1244;59793;-65
2022/03/14 04:02:27;;;;;;;18.00;12.30;;;;;;;-5.68;66.97;98878.57;110191;1246;59689;-64
2022/03/14 04:05:08;;;;;;;15.60;10.50;;;;;;;-5.65;67.47;98882.17;110041;1247;71539;-61
2022/03/14 04:07:46;;;;;;;14.70;9.40;;;;;;;-5.65;67.72;98886.25;110211;1245;68094;-67
2022/03/14 04:10:29;;;;;;;17.50;11.20;;;;;;;-5.67;67.27;98893.38;110222;1247;69399;-60
2022/03/14 04:13:07;;;;;;;15.60;8.60;;;;;;;-5.71;67.35;98890.60;110111;1246;59741;-70
2022/03/14 04:15:51;;;;;;;25.50;15.30;;;;;;;-5.73;67.14;98892.58;110048;1247;59956;-70
2022/03/14 04:18:32;;;;;;;25.10;14.60;;;;;;;-5.77;67.58;98893.04;110073;1247;71636;-68
2022/03/14 04:21:14;;;;;;;17.30;12.20;;;;;;;-5.80;68.24;98896.39;110081;1247;68622;-61
2022/03/14 04:23:54;;;;;;;17.60;12.00;;;;;;;-5.84;67.29;98897.34;110032;1247;69342;-63
2022/03/14 04:26:30;;;;;;;19.40;12.60;;;;;;;-5.86;68.08;98899.52;110251;1247;59758;-62
2022/03/14 04:29:15;;;;;;;16.70;10.60;;;;;;;-5.90;67.68;98898.27;110158;1247;60077;-62
2022/03/14 04:31:52;;;;;;;14.70;8.50;;;;;;;-5.91;67.82;98902.33;110125;1247;71347;-63
2022/03/14 04:34:39;;;;;;;22.10;12.60;;;;;;;-5.94;67.51;98903.34;110239;1245;67730;-60
2022/03/14 04:37:23;;;;;;;12.30;8.00;;;;;;;-5.97;67.64;98906.84;110081;1247;68641;-65
2022/03/14 04:40:01;;;;;;;23.20;14.80;;;;;;;-5.99;69.16;98907.66;110219;1244;59750;-60
2022/03/14 04:42:37;;;;;;;23.10;15.30;;;;;;;-6.01;70.44;98908.13;110097;1247;59690;-60
2022/03/14 04:45:26;;;;;;;18.40;11.70;;;;;;;-5.98;68.67;98911.08;110199;1244;71071;-62
2022/03/14 04:48:05;;;;;;;12.00;9.30;;;;;;;-5.95;69.72;98914.70;110113;1247;68509;-62
2022/03/14 04:50:53;;;;;;;13.00;9.40;;;;;;;-5.95;68.55;98918.27;110125;1244;68653;-58
2022/03/14 04:53:30;;;;;;;17.40;11.90;;;;;;;-5.96;68.18;98921.27;110259;1245;59667;-63
2022/03/14 04:56:12;;;;;;;21.90;13.70;;;;;;;-5.98;68.83;98922.61;110110;1247;59757;-59
2022/03/14 04:58:53;;;;;;;12.50;8.80;;;;;;;-5.99;68.99;98926.67;110089;1245;71416;-60
2022/03/14 05:01:40;;;;;;;17.10;10.30;;;;;;;-5.99;68.66;98929.38;110422;1245;67906;-61
2022/03/14 05:04:26;;;;;;;14.10;8.40;;;;;;;-5.98;68.58;98927.36;110122;1247;68624;-67
2022/03/14 05:07:17;;;;;;;9.00;5.90;;;;;;;-5.91;68.31;98927.63;110151;1246;59707;-64
2022/03/14 05:10:06;;;;;;;23.20;12.30;;;;;;;-5.76;68.30;98932.27;110280;1244;59693;-62
2022/03/14 05:12:52;;;;;;;14.90;10.00;;;;;;;-5.56;68.07;98934.82;110369;1244;69743;-68
2022/03/14 05:15:42;;;;;;;13.10;10.10;;;;;;;-5.34;67.97;98939.22;110322;1244;68651;-62
2022/03/14 05:18:21;;;;;;;15.20;10.30;;;;;;;-5.10;67.49;98941.61;110301;1244;69222;-64
2022/03/14 05:21:02;;;;;;;14.80;9.70;;;;;;;-4.85;67.83;98943.48;110190;1245;60107;-60
2022/03/14 05:23:42;;;;;;;13.70;11.00;;;;;;;-4.59;67.33;98945.49;110080;1244;59743;-61
2022/03/14 05:26:22;;;;;;;21.00;13.50;;;;;;;-4.31;66.98;98944.45;110157;1247;71507;-62
2022/03/14 05:29:02;;;;;;;24.30;16.10;;;;;;;-4.03;66.53;98943.55;110119;1247;68592;-67
2022/03/14 05:31:40;;;;;;;18.60;11.70;;;;;;;-3.76;66.23;98943.29;110031;1244;69389;-60
2022/03/14 05:34:20;;;;;;;20.10;12.90;;;;;;;-3.43;65.82;98943.88;110037;1247;59671;-65
2022/03/14 05:37:06;;;;;;;32.40;21.80;;;;;;;-3.15;64.15;98946.30;109979;1247;59666;-69
2022/03/14 05:39:43;;;;;;;29.60;19.70;;;;;;;-2.87;63.45;98946.96;110127;1244;71380;-68
2022/03/14 05:42:19;;;;;;;35.10;22.40;;;;;;;-2.56;63.42;98950.02;110272;1244;68542;-64
2022/03/14 05:45:01;;;;;;;24.10;17.50;;;;;;;-2.25;63.21;98951.67;110135;1244;69104;-62
2022/03/14 05:47:36;;;;;;;38.50;23.00;;;;;;;-1.90;62.09;98949.68;110262;1244;59675;-64
2022/03/14 05:50:27;;;;;;;25.30;17.90;;;;;;;-1.64;59.78;98951.77;110279;1245;59619;-67
2022/03/14 05:53:12;;;;;;;33.10;19.90;;;;;;;-1.31;61.80;98959.98;110039;1244;72449;-65
2022/03/14 05:55:48;;;;;;;27.50;19.00;;;;;;;-0.98;60.94;98967.64;110163;1245;69318;-64
2022/03/14 05:58:25;;;;;;;32.60;20.60;;;;;;;-0.68;59.24;98966.70;110096;1247;69394;-69
2022/03/14 06:01:06;;;;;;;23.90;16.90;;;;;;;-0.34;60.92;98966.76;110424;1244;59751;-61
2022/03/14 06:03:42;;;;;;;33.10;22.70;;;;;;;-0.02;59.62;98967.10;110316;1245;59688;-72
2022/03/14 06:06:34;;;;;;;47.20;30.80;;;;;;;0.26;57.87;98965.55;110096;1247;71329;-68
2022/03/14 06:09:08;;;;;;;42.20;26.80;;;;;;;0.53;57.57;98970.52;109895;1247;69733;-63
2022/03/14 06:11:51;;;;;;;37.50;25.90;;;;;;;0.88;58.73;98973.98;110117;1246;69540;-69
2022/03/14 06:14:29;;;;;;;46.80;31.10;;;;;;;1.29;58.17;98973.60;110031;1247;59733;-74
2022/03/14 06:17:12;;;;;;;35.00;26.80;;;;;;;1.66;58.35;98979.88;110036;1247;59669;-61
2022/03/14 06:19:54;;;;;;;40.00;27.80;;;;;;;2.12;57.25;98977.38;110090;1247;71533;-69
2022/03/14 06:22:44;;;;;;;50.80;34.80;;;;;;;2.56;56.14;98978.80;109913;1248;67647;-66
2022/03/14 06:25:31;;;;;;;42.30;32.30;;;;;;;2.98;54.59;98984.84;110110;1247;69394;-64
2022/03/14 06:28:19;;;;;;;39.50;27.70;;;;;;;3.31;53.44;98989.05;110051;1247;59754;-63
2022/03/14 06:30:57;;;;;;;40.70;29.80;;;;;;;3.54;50.25;98990.68;110102;1246;59761;-63
2022/03/14 06:33:41;;;;;;;66.50;48.10;;;;;;;3.86;51.43;98987.98;110148;1246;71563;-71
2022/03/14 06:36:26;;;;;;;64.20;46.10;;;;;;;3.94;49.51;98993.51;110133;1246;67819;-68
2022/03/14 06:39:19;;;;;;;67.00;46.60;;;;;;;4.18;50.61;98993.35;110171;1247;68588;-67
2022/03/14 06:42:03;;;;;;;53.00;38.90;;;;;;;4.24;46.21;98996.12;110097;1245;59742;-69
2022/03/14 06:44:46;;;;;;;50.80;38.00;;;;;;;4.47;46.49;98999.59;110187;1247;59646;-71
2022/03/14 06:47:24;;;;;;;31.00;22.20;;;;;;;4.79;47.21;99005.05;109820;1248;72775;-61
2022/03/14 06:49:59;;;;;;;38.70;27.10;;;;;;;5.28;46.68;98999.32;110134;1247;68515;-69
2022/03/14 06:52:34;;;;;;;25.40;18.80;;;;;;;5.50;43.02;99003.92;110148;1247;68771;-61
2022/03/14 06:55:22;;;;;;;32.80;23.50;;;;;;;6.09;41.70;99003.50;109790;1247;59652;-68
2022/03/14 06:57:57;;;;;;;24.80;19.70;;;;;;;6.48;41.93;98999.38;110174;1247;59660;-63
2022/03/14 07:00:40;;;;;;;25.20;18.30;;;;;;;6.91;40.24;99007.56;110117;1247;71529;-67
2022/03/14 07:03:15;;;;;;;20.20;14.90;;;;;;;7.10;39.55;99005.88;110174;1246;67811;-71
2022/03/14 07:05:51;;;;;;;20.80;15.20;;;;;;;7.23;38.24;99008.21;110092;1247;68696;-66
2022/03/14 07:08:42;;;;;;;16.50;13.10;;;;;;;7.28;39.08;99005.80;109927;1247;59772;-78
2022/03/14 07:11:22;;;;;;;19.00;13.70;;;;;;;7.42;38.73;99007.22;110148;1247;59740;-72
2022/03/14 07:14:06;;;;;;;16.20;12.50;;;;;;;7.51;38.38;99009.54;110123;1245;70991;-63
2022/03/14 07:16:44;;;;;;;16.30;14.40;;;;;;;7.78;40.46;99013.94;110142;1247;68617;-70
2022/03/14 07:19:20;;;;;;;16.50;14.70;;;;;;;8.08;37.48;99011.64;110168;1246;69247;-63
2022/03/14 07:22:05;;;;;;;16.30;11.70;;;;;;;8.08;36.07;99015.26;110024;1247;59699;-62
2022/03/14 07:24:49;;;;;;;20.50;15.90;;;;;;;8.24;35.86;99014.83;110152;1244;59626;-62
2022/03/14 07:27:24;;;;;;;21.60;14.40;;;;;;;7.14;34.75;99018.92;110170;1247;70697;-68
2022/03/14 07:30:00;;;;;;;21.80;17.00;;;;;;;7.23;36.26;99020.00;110202;1246;68438;-70
2022/03/14 07:32:38;;;;;;;17.80;13.70;;;;;;;7.82;36.36;99018.45;110102;1245;69325;-73
2022/03/14 07:35:17;;;;;;;23.50;16.90;;;;;;;8.33;34.73;99018.50;110044;1247;59720;-65
2022/03/14 07:37:58;;;;;;;18.20;13.40;;;;;;;8.55;34.15;99021.34;109881;1247;59751;-71
2022/03/14 07:40:42;;;;;;;18.30;14.70;;;;;;;8.90;33.16;99022.55;110099;1245;70757;-66
2022/03/14 07:43:30;;;;;;;17.50;13.20;;;;;;;9.67;32.42;99023.66;110102;1246;67652;-65
2022/03/14 07:46:09;;;;;;;17.40;14.90;;;;;;;10.18;31.47;99023.11;110178;1244;69271;-66
2022/03/14 07:48:46;;;;;;;19.00;14.80;;;;;;;10.19;30.35;99023.42;110278;1246;59738;-64
2022/03/14 07:51:28;;;;;;;17.90;14.40;;;;;;;10.47;30.14;99026.50;110234;1244;59658;-61
2022/03/14 07:54:03;;;;;;;16.00;12.60;;;;;;;9.98;30.18;99028.22;109992;1245;71406;-66
2022/03/14 07:56:37;;;;;;;19.10;15.80;;;;;;;10.42;29.16;99033.20;110259;1244;67810;-66
2022/03/14 07:59:24;;;;;;;17.70;12.60;;;;;;;9.37;30.09;99036.07;110226;1244;68909;-69
2022/03/14 08:02:01;;;;;;;20.00;14.10;;;;;;;10.04;29.21;99036.13;110195;1244;60077;-69
2022/03/14 08:04:39;;;;;;;16.10;12.10;;;;;;;10.03;29.29;99036.16;110232;1244;59663;-67
2022/03/14 08:07:19;;;;;;;16.30;12.70;;;;;;;10.39;28.45;99034.04;110144;1245;71335;-69
2022/03/14 08:10:09;;;;;;;17.20;14.00;;;;;;;10.39;28.84;99036.98;110073;1247;68534;-69
2022/03/14 08:12:55;;;;;;;19.40;14.50;;;;;;;10.93;27.86;99041.60;110180;1245;69450;-68
2022/03/14 08:15:36;;;;;;;16.70;12.70;;;;;;;10.97;27.60;99039.99;110041;1247;59761;-72
2022/03/14 08:18:13;;;;;;;16.10;13.50;;;;;;;11.85;26.37;99048.14;110030;1244;59671;-66
2022/03/14 08:20:57;;;;;;;16.90;13.40;;;;;;;11.23;26.54;99042.89;110126;1244;72034;-69
2022/03/14 08:23:31;;;;;;;15.00;11.90;;;;;;;10.61;27.12;99037.88;110258;1244;68564;-64
2022/03/14 08:26:09;;;;;;;16.60;12.00;;;;;;;10.36;27.94;99035.65;110138;1244;68602;-63
2022/03/14 08:28:51;;;;;;;17.40;12.40;;;;;;;10.70;27.67;99037.95;110169;1245;59681;-62
2022/03/14 08:31:33;;;;;;;18.60;15.30;;;;;;;11.14;26.92;99038.11;110090;1246;59695;-67
2022/03/14 08:34:09;;;;;;;17.60;15.00;;;;;;;9.81;28.55;99031.36;110298;1244;71132;-66
2022/03/14 08:36:49;;;;;;;16.10;12.00;;;;;;;9.99;28.66;99034.10;110467;1244;67577;-68
2022/03/14 08:39:26;;;;;;;;;;;;;;;11.37;26.55;99034.20;110066;1245;69421;-65
2022/03/14 08:42:09;;;;;;;15.20;12.40;;;;;;;12.09;25.60;99030.66;110271;1244;59754;-62
2022/03/14 08:45:00;;;;;;;11.70;10.40;;;;;;;12.54;26.13;99028.24;110253;1245;59693;-72
2022/03/14 08:47:42;;;;;;;16.50;14.00;;;;;;;13.13;25.79;99032.09;110322;1244;71579;-70
2022/03/14 08:50:25;;;;;;;15.60;11.80;;;;;;;13.64;23.83;99035.58;110100;1244;68401;-64
2022/03/14 08:53:12;;;;;;;13.70;11.90;;;;;;;13.09;24.01;99033.15;110092;1247;69345;-69
2022/03/14 08:55:55;;;;;;;16.00;13.10;;;;;;;13.51;24.05;99032.48;110355;1244;59760;-70
2022/03/14 08:58:48;;;;;;;17.30;14.30;;;;;;;12.64;24.50;99029.58;110085;1244;59692;-66
2022/03/14 09:01:29;;;;;;;19.70;14.50;;;;;;;11.45;26.00;99032.67;110184;1244;70988;-70
2022/03/14 09:04:19;;;;;;;18.40;14.70;;;;;;;11.40;26.86;99034.64;110083;1244;67819;-66
2022/03/14 09:06:55;;;;;;;17.90;13.60;;;;;;;11.04;26.54;99034.57;110025;1246;68468;-68
2022/03/14 09:09:31;;;;;;;21.20;15.20;;;;;;;10.91;27.07;99031.23;110051;1247;59692;-73
2022/03/14 09:12:09;;;;;;;15.70;13.30;;;;;;;10.93;27.18;99030.95;110086;1246;59651;-64
2022/03/14 09:14:56;;;;;;;18.70;15.10;;;;;;;11.84;26.16;99028.11;110009;1247;70767;-67
2022/03/14 09:18:05;;;;;;;17.90;15.00;;;;;;;12.30;25.69;99025.14;110145;1246;67643;-66
2022/03/14 09:20:44;;;;;;;18.00;13.40;;;;;;;13.10;24.44;99027.00;110113;1247;68429;-65
2022/03/14 09:23:19;;;;;;;17.40;14.90;;;;;;;13.99;23.47;99025.73;109954;1247;59734;-69
2022/03/14 09:25:55;;;;;;;19.60;14.80;;;;;;;13.31;23.71;99023.46;110135;1247;59680;-70
2022/03/14 09:28:44;;;;;;;17.00;13.70;;;;;;;13.65;23.58;99023.27;110083;1247;71548;-72
2022/03/14 09:31:26;;;;;;;18.80;14.70;;;;;;;13.47;23.35;99029.06;110127;1246;67677;-67
2022/03/14 09:34:10;;;;;;;17.10;13.20;;;;;;;14.12;23.19;99015.55;110123;1246;68547;-70
2022/03/14 09:36:47;;;;;;;16.70;14.30;;;;;;;14.49;22.81;99020.73;110100;1247;59723;-70
2022/03/14 09:39:33;;;;;;;15.50;12.30;;;;;;;13.74;23.01;99022.17;110064;1247;59698;-72
2022/03/14 09:42:16;;;;;;;16.80;13.10;;;;;;;15.05;22.25;99022.05;110034;1247;70958;-68
2022/03/14 09:44:59;;;;;;;13.30;10.80;;;;;;;14.99;21.46;99019.63;110107;1245;66761;-73
2022/03/14 09:47:43;;;;;;;17.80;13.60;;;;;;;16.09;20.85;99023.79;110119;1247;68697;-65
2022/03/14 09:50:45;;;;;;;17.90;14.60;;;;;;;16.29;20.08;99018.55;110068;1247;59688;-66
2022/03/14 09:53:34;;;;;;;13.20;11.00;;;;;;;15.53;20.49;99025.14;109937;1248;59807;-63
2022/03/14 09:56:11;;;;;;;15.60;12.20;;;;;;;16.82;20.46;99015.13;110145;1246;70724;-66
2022/03/14 09:58:47;;;;;;;13.80;12.00;;;;;;;16.04;19.70;99015.23;110109;1247;67693;-65
2022/03/14 10:01:36;;;;;;;15.80;13.70;;;;;;;17.13;18.81;99013.17;110085;1247;68624;-64
2022/03/14 10:04:14;;;;;;;14.70;12.50;;;;;;;16.63;19.30;99013.82;110067;1246;59745;-65
2022/03/14 10:06:55;;;;;;;13.70;11.60;;;;;;;17.13;19.35;99015.62;110376;1244;59700;-65
2022/03/14 10:09:43;;;;;;;16.10;14.00;;;;;;;17.22;18.76;99016.17;110155;1245;71048;-64
2022/03/14 10:12:23;;;;;;;15.20;13.00;;;;;;;15.70;19.62;99016.04;110049;1247;68437;-66
2022/03/14 10:15:05;;;;;;;13.40;11.90;;;;;;;16.57;19.35;99005.34;110057;1245;67529;-63
2022/03/14 10:17:51;;;;;;;17.90;15.40;;;;;;;16.91;18.53;99008.55;110287;1244;59811;-63
2022/03/14 10:20:34;;;;;;;15.00;12.80;;;;;;;16.45;19.26;99005.05;110166;1244;59718;-64
2022/03/14 10:23:09;;;;;;;14.70;11.20;;;;;;;17.22;18.28;99010.09;110083;1245;70929;-62
2022/03/14 10:25:56;;;;;;;16.10;12.70;;;;;;;17.97;18.21;99004.85;110128;1245;68143;-63
2022/03/14 10:28:38;;;;;;;13.00;11.40;;;;;;;18.39;18.01;99002.13;110238;1244;69421;-65
2022/03/14 10:31:37;;;;;;;15.70;13.00;;;;;;;19.04;16.68;99001.79;110158;1244;59696;-62
2022/03/14 10:34:27;;;;;;;15.80;12.20;;;;;;;19.29;16.58;99004.27;110062;1247;59693;-78
2022/03/14 10:37:13;;;;;;;14.60;12.80;;;;;;;19.54;16.30;98996.73;110372;1244;70989;-66
2022/03/14 10:39:58;;;;;;;15.90;13.40;;;;;;;19.67;17.00;98998.66;110082;1245;67725;-65
2022/03/14 10:42:49;;;;;;;13.10;11.40;;;;;;;20.22;16.11;99000.11;110381;1244;68250;-64
2022/03/14 10:45:34;;;;;;;14.50;11.50;;;;;;;20.47;14.71;98995.05;110067;1246;59685;-65
2022/03/14 10:48:24;;;;;;;13.30;11.20;;;;;;;20.80;14.03;98989.31;110401;1244;59708;-62
2022/03/14 10:51:09;;;;;;;15.10;12.30;;;;;;;21.49;14.44;98995.03;110125;1244;71346;-66
2022/03/14 10:54:07;;;;;;;16.00;12.80;;;;;;;21.71;13.45;98990.00;110281;1244;67866;-63
2022/03/14 10:57:10;;;;;;;13.60;11.60;;;;;;;21.58;12.90;98995.06;110269;1244;69699;-64
2022/03/14 10:59:54;;;;;;;11.90;10.00;;;;;;;21.86;13.04;99000.29;110110;1245;59729;-64
2022/03/14 11:02:34;;;;;;;14.10;12.60;;;;;;;22.44;12.78;98994.13;110068;1245;59647;-63
2022/03/14 11:05:09;;;;;;;12.90;11.00;;;;;;;22.13;12.19;98986.98;109847;1245;70762;-63
2022/03/14 11:07:47;;;;;;;14.90;13.00;;;;;;;22.27;12.60;98983.67;110311;1244;68602;-62
2022/03/14 11:10:38;;;;;;;12.60;10.70;;;;;;;21.30;12.96;98983.17;110110;1244;69400;-63
2022/03/14 11:13:22;;;;;;;12.50;11.10;;;;;;;22.28;12.85;98982.46;110104;1245;59736;-73
2022/03/14 11:16:00;;;;;;;12.60;10.80;;;;;;;22.98;12.25;98986.34;110261;1244;59678;-63
2022/03/14 11:18:35;;;;;;;15.00;12.90;;;;;;;23.22;11.89;98983.41;110296;1244;71187;-70
2022/03/14 11:21:19;;;;;;;14.50;12.70;;;;;;;21.68;12.21;98977.30;110292;1244;67924;-62
2022/03/14 11:24:01;;;;;;;14.10;11.50;;;;;;;22.70;12.52;98974.33;110155;1244;68683;-65
2022/03/14 11:26:36;;;;;;;;;;;;;;;23.51;12.27;98973.02;110128;1246;59730;-63
2022/03/14 11:29:18;;;;;;;16.00;13.60;;;;;;;22.67;11.77;98971.73;110252;1244;59866;-66
2022/03/14 11:31:55;;;;;;;13.80;12.40;;;;;;;22.86;12.13;98967.44;110329;1244;71724;-67
2022/03/14 11:34:55;;;;;;;14.30;10.90;;;;;;;22.90;12.29;98963.41;110412;1244;67598;-66
2022/03/14 11:37:31;;;;;;;15.00;12.20;;;;;;;24.16;12.17;98958.81;110151;1244;67650;-68
2022/03/14 11:40:06;;;;;;;14.60;11.90;;;;;;;24.07;11.57;98960.32;110420;1244;59873;-65
2022/03/14 11:42:40;;;;;;;13.70;12.10;;;;;;;24.76;11.62;98956.98;110336;1244;59658;-67
2022/03/14 11:45:19;;;;;;;13.10;11.70;;;;;;;24.18;11.16;98952.20;110384;1244;71237;-65
2022/03/14 11:47:57;;;;;;;13.60;11.70;;;;;;;24.29;11.14;98951.92;110172;1244;68135;-69
2022/03/14 11:51:03;;;;;;;15.00;12.90;;;;;;;24.89;11.23;98946.50;110152;1245;69626;-65
2022/03/14 11:53:57;;;;;;;17.10;13.80;;;;;;;25.82;11.03;98943.23;110153;1244;59741;-69
2022/03/14 11:56:39;;;;;;;16.10;14.00;;;;;;;24.73;10.81;98940.03;110216;1245;59743;-67
2022/03/14 11:59:33;;;;;;;14.30;12.40;;;;;;;24.03;11.20;98937.02;110311;1244;70844;-73
2022/03/14 12:02:44;;;;;;;13.20;11.60;;;;;;;24.68;11.60;98937.27;110379;1244;67674;-65
2022/03/14 12:05:35;;;;;;;14.70;12.30;;;;;;;26.04;11.05;98930.90;110446;1244;69931;-69
2022/03/14 12:08:19;;;;;;;11.30;10.20;;;;;;;26.86;10.16;98936.73;110099;1247;59744;-64
2022/03/14 12:11:15;;;;;;;11.70;10.40;;;;;;;27.66;9.72;98936.64;110167;1244;59605;-65
2022/03/14 12:13:53;;;;;;;14.10;11.80;;;;;;;28.20;9.33;98932.92;110248;1244;70722;-68
2022/03/14 12:16:48;;;;;;;13.80;11.20;;;;;;;28.32;9.24;98928.27;110235;1244;67821;-65
2022/03/14 12:19:29;;;;;;;12.90;11.10;;;;;;;28.26;9.16;98925.55;110352;1244;69455;-66
2022/03/14 12:22:07;;;;;;;12.90;11.10;;;;;;;28.71;9.28;98921.12;110166;1244;59717;-70